sensor_id;sensor_type;location;lat;lon;timestamp;P1;durP1;ratioP1;P2;durP2;ratioP2
15216;SDS011;7711;46.634;14.318;2023-07-20T00:01:34;7.10;;;4.65;;
15216;SDS011;7711;46.634;14.318;2023-07-20T00:04:03;6.70;;;4.18;;
15216;SDS011;7711;46.634;14.318;2023-07-20T00:06:31;10.93;;;4.72;;
15216;SDS011;7711;46.634;14.318;2023-07-20T00:08:58;10.45;;;4.80;;
15216;SDS011;7711;46.634;14.318;2023-07-20T00:11:25;9.07;;;4.60;;
15216;SDS011;7711;46.634;14.318;2023-07-20T00:13:53;6.80;;;4.50;;
15216;SDS011;7711;46.634;14.318;2023-07-20T00:16:20;5.75;;;4.25;;
15216;SDS011;7711;46.634;14.318;2023-07-20T00:18:47;8.65;;;4.75;;
15216;SDS011;7711;46.634;14.318;2023-07-20T00:21:14;7.45;;;4.45;;
15216;SDS011;7711;46.634;14.318;2023-07-20T00:23:42;7.47;;;5.05;;
15216;SDS011;7711;46.634;14.318;2023-07-20T00:26:09;7.25;;;4.65;;
15216;SDS011;7711;46.634;14.318;2023-07-20T00:28:36;8.07;;;4.60;;
15216;SDS011;7711;46.634;14.318;2023-07-20T00:31:03;6.40;;;4.40;;
15216;SDS011;7711;46.634;14.318;2023-07-20T00:33:30;5.38;;;4.30;;
15216;SDS011;7711;46.634;14.318;2023-07-20T00:35:58;10.63;;;5.10;;
15216;SDS011;7711;46.634;14.318;2023-07-20T00:38:24;8.45;;;4.93;;
15216;SDS011;7711;46.634;14.318;2023-07-20T00:40:53;6.88;;;4.45;;
15216;SDS011;7711;46.634;14.318;2023-07-20T00:43:20;7.53;;;5.22;;
15216;SDS011;7711;46.634;14.318;2023-07-20T00:45:47;7.00;;;5.10;;
15216;SDS011;7711;46.634;14.318;2023-07-20T00:48:14;8.02;;;4.80;;
15216;SDS011;7711;46.634;14.318;2023-07-20T00:50:41;6.07;;;4.65;;
15216;SDS011;7711;46.634;14.318;2023-07-20T00:53:08;7.88;;;4.90;;
15216;SDS011;7711;46.634;14.318;2023-07-20T00:55:35;8.57;;;4.82;;
15216;SDS011;7711;46.634;14.318;2023-07-20T00:58:04;5.97;;;4.28;;
15216;SDS011;7711;46.634;14.318;2023-07-20T01:00:32;6.40;;;4.63;;
15216;SDS011;7711;46.634;14.318;2023-07-20T01:02:59;7.05;;;5.05;;
15216;SDS011;7711;46.634;14.318;2023-07-20T01:05:27;8.70;;;5.38;;
15216;SDS011;7711;46.634;14.318;2023-07-20T01:08:03;9.13;;;5.85;;
15216;SDS011;7711;46.634;14.318;2023-07-20T01:10:36;7.68;;;4.85;;
15216;SDS011;7711;46.634;14.318;2023-07-20T01:13:08;6.07;;;5.47;;
15216;SDS011;7711;46.634;14.318;2023-07-20T01:15:36;9.00;;;4.82;;
15216;SDS011;7711;46.634;14.318;2023-07-20T01:18:03;9.30;;;4.97;;
15216;SDS011;7711;46.634;14.318;2023-07-20T01:20:31;7.63;;;4.80;;
15216;SDS011;7711;46.634;14.318;2023-07-20T01:29:24;7.93;;;4.65;;
15216;SDS011;7711;46.634;14.318;2023-07-20T01:32:11;7.90;;;4.30;;
15216;SDS011;7711;46.634;14.318;2023-07-20T01:34:38;7.60;;;4.90;;
15216;SDS011;7711;46.634;14.318;2023-07-20T01:37:07;8.20;;;4.90;;
15216;SDS011;7711;46.634;14.318;2023-07-20T01:39:35;6.80;;;4.80;;
15216;SDS011;7711;46.634;14.318;2023-07-20T01:42:03;9.13;;;4.60;;
15216;SDS011;7711;46.634;14.318;2023-07-20T01:44:31;9.75;;;4.82;;
15216;SDS011;7711;46.634;14.318;2023-07-20T01:46:58;9.50;;;4.78;;
15216;SDS011;7711;46.634;14.318;2023-07-20T01:49:26;10.05;;;5.03;;
15216;SDS011;7711;46.634;14.318;2023-07-20T01:51:53;6.88;;;4.60;;
15216;SDS011;7711;46.634;14.318;2023-07-20T01:54:20;9.35;;;5.25;;
15216;SDS011;7711;46.634;14.318;2023-07-20T01:56:47;7.07;;;4.55;;
15216;SDS011;7711;46.634;14.318;2023-07-20T01:59:14;6.35;;;4.47;;
15216;SDS011;7711;46.634;14.318;2023-07-20T02:01:41;10.90;;;5.05;;
15216;SDS011;7711;46.634;14.318;2023-07-20T02:04:08;8.25;;;4.75;;
15216;SDS011;7711;46.634;14.318;2023-07-20T02:06:36;5.55;;;4.50;;
15216;SDS011;7711;46.634;14.318;2023-07-20T02:09:03;5.93;;;4.47;;
15216;SDS011;7711;46.634;14.318;2023-07-20T02:11:30;6.13;;;4.43;;
15216;SDS011;7711;46.634;14.318;2023-07-20T02:13:57;5.85;;;4.60;;
15216;SDS011;7711;46.634;14.318;2023-07-20T02:16:24;7.45;;;4.80;;
15216;SDS011;7711;46.634;14.318;2023-07-20T02:18:51;7.15;;;4.45;;
15216;SDS011;7711;46.634;14.318;2023-07-20T02:21:22;9.75;;;4.75;;
15216;SDS011;7711;46.634;14.318;2023-07-20T02:23:50;7.75;;;4.65;;
15216;SDS011;7711;46.634;14.318;2023-07-20T02:26:17;9.48;;;4.60;;
15216;SDS011;7711;46.634;14.318;2023-07-20T02:28:44;8.30;;;4.40;;
15216;SDS011;7711;46.634;14.318;2023-07-20T02:31:11;5.90;;;3.90;;
15216;SDS011;7711;46.634;14.318;2023-07-20T02:33:38;7.43;;;4.50;;
15216;SDS011;7711;46.634;14.318;2023-07-20T02:36:05;8.80;;;5.00;;
15216;SDS011;7711;46.634;14.318;2023-07-20T02:38:31;11.52;;;4.05;;
15216;SDS011;7711;46.634;14.318;2023-07-20T02:41:00;7.00;;;4.65;;
15216;SDS011;7711;46.634;14.318;2023-07-20T02:43:27;5.72;;;4.40;;
15216;SDS011;7711;46.634;14.318;2023-07-20T02:45:54;6.47;;;4.43;;
15216;SDS011;7711;46.634;14.318;2023-07-20T02:48:21;7.90;;;4.18;;
15216;SDS011;7711;46.634;14.318;2023-07-20T02:50:48;12.80;;;4.22;;
15216;SDS011;7711;46.634;14.318;2023-07-20T02:53:15;9.27;;;4.18;;
15216;SDS011;7711;46.634;14.318;2023-07-20T02:55:42;7.07;;;4.20;;
15216;SDS011;7711;46.634;14.318;2023-07-20T02:58:10;5.05;;;4.15;;
15216;SDS011;7711;46.634;14.318;2023-07-20T03:00:37;8.15;;;4.32;;
15216;SDS011;7711;46.634;14.318;2023-07-20T03:03:04;8.38;;;4.13;;
15216;SDS011;7711;46.634;14.318;2023-07-20T03:05:34;5.75;;;4.35;;
15216;SDS011;7711;46.634;14.318;2023-07-20T03:08:03;8.35;;;4.72;;
15216;SDS011;7711;46.634;14.318;2023-07-20T03:10:31;5.18;;;4.68;;
15216;SDS011;7711;46.634;14.318;2023-07-20T03:12:58;5.30;;;4.18;;
15216;SDS011;7711;46.634;14.318;2023-07-20T03:15:26;7.45;;;4.68;;
15216;SDS011;7711;46.634;14.318;2023-07-20T03:17:54;8.30;;;4.25;;
15216;SDS011;7711;46.634;14.318;2023-07-20T03:20:21;8.15;;;4.53;;
15216;SDS011;7711;46.634;14.318;2023-07-20T03:22:48;8.98;;;4.32;;
15216;SDS011;7711;46.634;14.318;2023-07-20T03:25:15;4.65;;;3.67;;
15216;SDS011;7711;46.634;14.318;2023-07-20T03:27:42;6.20;;;4.22;;
15216;SDS011;7711;46.634;14.318;2023-07-20T03:30:09;5.68;;;3.90;;
15216;SDS011;7711;46.634;14.318;2023-07-20T03:32:38;6.47;;;3.85;;
15216;SDS011;7711;46.634;14.318;2023-07-20T03:35:06;6.55;;;4.00;;
15216;SDS011;7711;46.634;14.318;2023-07-20T03:37:33;6.05;;;4.15;;
15216;SDS011;7711;46.634;14.318;2023-07-20T03:40:01;4.80;;;3.75;;
15216;SDS011;7711;46.634;14.318;2023-07-20T03:42:29;8.90;;;4.13;;
15216;SDS011;7711;46.634;14.318;2023-07-20T03:44:56;8.55;;;4.10;;
15216;SDS011;7711;46.634;14.318;2023-07-20T03:47:23;5.00;;;4.22;;
15216;SDS011;7711;46.634;14.318;2023-07-20T03:49:52;7.38;;;4.05;;
15216;SDS011;7711;46.634;14.318;2023-07-20T03:52:19;4.80;;;4.00;;
15216;SDS011;7711;46.634;14.318;2023-07-20T03:54:45;5.15;;;4.03;;
15216;SDS011;7711;46.634;14.318;2023-07-20T03:57:12;5.25;;;4.05;;
15216;SDS011;7711;46.634;14.318;2023-07-20T03:59:39;6.38;;;4.10;;
15216;SDS011;7711;46.634;14.318;2023-07-20T04:02:11;8.38;;;4.07;;
15216;SDS011;7711;46.634;14.318;2023-07-20T04:04:38;4.63;;;4.05;;
15216;SDS011;7711;46.634;14.318;2023-07-20T04:07:06;8.52;;;4.25;;
15216;SDS011;7711;46.634;14.318;2023-07-20T04:09:33;9.73;;;4.38;;
15216;SDS011;7711;46.634;14.318;2023-07-20T04:12:00;6.45;;;3.92;;
15216;SDS011;7711;46.634;14.318;2023-07-20T04:14:27;7.90;;;4.57;;
15216;SDS011;7711;46.634;14.318;2023-07-20T04:16:54;5.80;;;4.55;;
15216;SDS011;7711;46.634;14.318;2023-07-20T04:19:20;7.78;;;4.85;;
15216;SDS011;7711;46.634;14.318;2023-07-20T04:21:47;6.13;;;4.60;;
15216;SDS011;7711;46.634;14.318;2023-07-20T04:24:16;12.35;;;5.55;;
15216;SDS011;7711;46.634;14.318;2023-07-20T04:26:43;10.02;;;5.32;;
15216;SDS011;7711;46.634;14.318;2023-07-20T04:29:09;10.10;;;5.60;;
15216;SDS011;7711;46.634;14.318;2023-07-20T04:31:36;8.93;;;5.63;;
15216;SDS011;7711;46.634;14.318;2023-07-20T04:34:03;7.68;;;5.03;;
15216;SDS011;7711;46.634;14.318;2023-07-20T04:36:30;9.68;;;5.40;;
15216;SDS011;7711;46.634;14.318;2023-07-20T04:38:57;12.02;;;5.78;;
15216;SDS011;7711;46.634;14.318;2023-07-20T04:41:25;8.50;;;6.00;;
15216;SDS011;7711;46.634;14.318;2023-07-20T04:43:52;10.43;;;5.53;;
15216;SDS011;7711;46.634;14.318;2023-07-20T04:46:19;12.50;;;5.72;;
15216;SDS011;7711;46.634;14.318;2023-07-20T04:48:46;8.25;;;5.18;;
15216;SDS011;7711;46.634;14.318;2023-07-20T04:51:14;10.57;;;5.45;;
15216;SDS011;7711;46.634;14.318;2023-07-20T04:53:42;8.05;;;5.32;;
15216;SDS011;7711;46.634;14.318;2023-07-20T04:56:09;8.32;;;5.15;;
15216;SDS011;7711;46.634;14.318;2023-07-20T04:58:37;7.72;;;5.35;;
15216;SDS011;7711;46.634;14.318;2023-07-20T05:01:04;10.35;;;6.03;;
15216;SDS011;7711;46.634;14.318;2023-07-20T05:03:31;7.85;;;5.53;;
15216;SDS011;7711;46.634;14.318;2023-07-20T05:05:58;7.32;;;5.13;;
15216;SDS011;7711;46.634;14.318;2023-07-20T05:08:25;8.63;;;5.72;;
15216;SDS011;7711;46.634;14.318;2023-07-20T05:10:52;6.90;;;5.13;;
15216;SDS011;7711;46.634;14.318;2023-07-20T05:13:19;7.47;;;5.28;;
15216;SDS011;7711;46.634;14.318;2023-07-20T05:15:47;7.82;;;5.30;;
15216;SDS011;7711;46.634;14.318;2023-07-20T05:18:17;7.70;;;4.97;;
15216;SDS011;7711;46.634;14.318;2023-07-20T05:20:45;10.85;;;5.78;;
15216;SDS011;7711;46.634;14.318;2023-07-20T05:23:12;7.40;;;5.50;;
15216;SDS011;7711;46.634;14.318;2023-07-20T05:25:39;7.43;;;5.18;;
15216;SDS011;7711;46.634;14.318;2023-07-20T05:28:07;6.88;;;5.65;;
15216;SDS011;7711;46.634;14.318;2023-07-20T05:30:34;5.72;;;5.10;;
15216;SDS011;7711;46.634;14.318;2023-07-20T05:33:02;7.45;;;4.70;;
15216;SDS011;7711;46.634;14.318;2023-07-20T05:35:29;6.80;;;5.18;;
15216;SDS011;7711;46.634;14.318;2023-07-20T05:37:56;8.00;;;5.38;;
15216;SDS011;7711;46.634;14.318;2023-07-20T05:40:23;8.40;;;4.93;;
15216;SDS011;7711;46.634;14.318;2023-07-20T05:42:50;6.57;;;5.07;;
15216;SDS011;7711;46.634;14.318;2023-07-20T05:45:18;7.53;;;4.97;;
15216;SDS011;7711;46.634;14.318;2023-07-20T05:47:46;8.80;;;5.38;;
15216;SDS011;7711;46.634;14.318;2023-07-20T05:50:14;10.32;;;5.15;;
15216;SDS011;7711;46.634;14.318;2023-07-20T05:52:41;8.38;;;5.30;;
15216;SDS011;7711;46.634;14.318;2023-07-20T05:55:08;7.00;;;4.95;;
15216;SDS011;7711;46.634;14.318;2023-07-20T05:57:35;6.82;;;5.03;;
15216;SDS011;7711;46.634;14.318;2023-07-20T06:00:05;5.70;;;5.00;;
15216;SDS011;7711;46.634;14.318;2023-07-20T06:02:33;6.70;;;5.10;;
15216;SDS011;7711;46.634;14.318;2023-07-20T06:05:00;7.25;;;5.15;;
15216;SDS011;7711;46.634;14.318;2023-07-20T06:07:29;7.60;;;5.50;;
15216;SDS011;7711;46.634;14.318;2023-07-20T06:09:56;6.63;;;5.20;;
15216;SDS011;7711;46.634;14.318;2023-07-20T06:12:23;7.32;;;4.70;;
15216;SDS011;7711;46.634;14.318;2023-07-20T06:14:50;6.65;;;5.32;;
15216;SDS011;7711;46.634;14.318;2023-07-20T06:17:17;5.72;;;5.03;;
15216;SDS011;7711;46.634;14.318;2023-07-20T06:19:44;7.63;;;5.55;;
15216;SDS011;7711;46.634;14.318;2023-07-20T06:22:11;8.57;;;5.10;;
15216;SDS011;7711;46.634;14.318;2023-07-20T06:24:39;6.03;;;4.95;;
15216;SDS011;7711;46.634;14.318;2023-07-20T06:27:06;7.07;;;5.47;;
15216;SDS011;7711;46.634;14.318;2023-07-20T06:29:33;7.05;;;5.57;;
15216;SDS011;7711;46.634;14.318;2023-07-20T06:32:00;6.03;;;5.38;;
15216;SDS011;7711;46.634;14.318;2023-07-20T06:34:26;6.97;;;5.35;;
15216;SDS011;7711;46.634;14.318;2023-07-20T06:36:54;6.22;;;5.00;;
15216;SDS011;7711;46.634;14.318;2023-07-20T06:39:21;8.95;;;5.35;;
15216;SDS011;7711;46.634;14.318;2023-07-20T06:41:50;9.88;;;5.45;;
15216;SDS011;7711;46.634;14.318;2023-07-20T06:44:16;5.47;;;4.70;;
15216;SDS011;7711;46.634;14.318;2023-07-20T06:46:43;8.23;;;4.97;;
15216;SDS011;7711;46.634;14.318;2023-07-20T06:49:15;8.05;;;4.70;;
15216;SDS011;7711;46.634;14.318;2023-07-20T06:51:51;7.90;;;5.20;;
15216;SDS011;7711;46.634;14.318;2023-07-20T06:54:18;5.93;;;5.05;;
15216;SDS011;7711;46.634;14.318;2023-07-20T06:56:45;6.53;;;4.68;;
15216;SDS011;7711;46.634;14.318;2023-07-20T06:59:13;5.68;;;4.80;;
15216;SDS011;7711;46.634;14.318;2023-07-20T07:01:40;7.05;;;5.03;;
15216;SDS011;7711;46.634;14.318;2023-07-20T07:04:07;5.22;;;4.68;;
15216;SDS011;7711;46.634;14.318;2023-07-20T07:06:34;6.70;;;4.53;;
15216;SDS011;7711;46.634;14.318;2023-07-20T07:09:02;8.52;;;5.05;;
15216;SDS011;7711;46.634;14.318;2023-07-20T07:11:30;5.90;;;4.88;;
15216;SDS011;7711;46.634;14.318;2023-07-20T07:13:57;7.10;;;5.15;;
15216;SDS011;7711;46.634;14.318;2023-07-20T07:16:25;9.05;;;4.97;;
15216;SDS011;7711;46.634;14.318;2023-07-20T07:18:52;8.13;;;4.90;;
15216;SDS011;7711;46.634;14.318;2023-07-20T07:21:19;7.88;;;5.10;;
15216;SDS011;7711;46.634;14.318;2023-07-20T07:23:46;9.15;;;4.85;;
15216;SDS011;7711;46.634;14.318;2023-07-20T07:26:13;6.93;;;4.88;;
15216;SDS011;7711;46.634;14.318;2023-07-20T07:28:40;6.97;;;4.93;;
15216;SDS011;7711;46.634;14.318;2023-07-20T07:31:07;8.10;;;5.97;;
15216;SDS011;7711;46.634;14.318;2023-07-20T07:33:35;6.70;;;5.68;;
15216;SDS011;7711;46.634;14.318;2023-07-20T07:36:02;7.07;;;4.93;;
15216;SDS011;7711;46.634;14.318;2023-07-20T07:38:29;7.13;;;4.97;;
15216;SDS011;7711;46.634;14.318;2023-07-20T07:40:57;8.02;;;5.28;;
15216;SDS011;7711;46.634;14.318;2023-07-20T07:43:24;10.43;;;5.18;;
15216;SDS011;7711;46.634;14.318;2023-07-20T07:45:53;7.45;;;4.95;;
15216;SDS011;7711;46.634;14.318;2023-07-20T07:48:20;7.15;;;5.47;;
15216;SDS011;7711;46.634;14.318;2023-07-20T07:50:51;7.70;;;5.07;;
15216;SDS011;7711;46.634;14.318;2023-07-20T07:53:19;7.47;;;5.32;;
15216;SDS011;7711;46.634;14.318;2023-07-20T07:55:47;8.90;;;5.47;;
15216;SDS011;7711;46.634;14.318;2023-07-20T07:58:14;7.28;;;5.00;;
15216;SDS011;7711;46.634;14.318;2023-07-20T08:00:41;7.80;;;5.90;;
15216;SDS011;7711;46.634;14.318;2023-07-20T08:03:08;8.48;;;5.90;;
15216;SDS011;7711;46.634;14.318;2023-07-20T08:05:35;6.00;;;5.00;;
15216;SDS011;7711;46.634;14.318;2023-07-20T08:08:04;10.15;;;5.85;;
15216;SDS011;7711;46.634;14.318;2023-07-20T08:10:31;8.27;;;5.55;;
15216;SDS011;7711;46.634;14.318;2023-07-20T08:12:58;8.20;;;5.57;;
15216;SDS011;7711;46.634;14.318;2023-07-20T08:15:25;7.95;;;5.63;;
15216;SDS011;7711;46.634;14.318;2023-07-20T08:17:52;11.70;;;6.00;;
15216;SDS011;7711;46.634;14.318;2023-07-20T08:20:19;6.32;;;5.43;;
15216;SDS011;7711;46.634;14.318;2023-07-20T08:22:51;7.65;;;5.63;;
15216;SDS011;7711;46.634;14.318;2023-07-20T08:25:19;8.13;;;5.43;;
15216;SDS011;7711;46.634;14.318;2023-07-20T08:27:46;8.40;;;5.53;;
15216;SDS011;7711;46.634;14.318;2023-07-20T08:30:13;5.47;;;4.85;;
15216;SDS011;7711;46.634;14.318;2023-07-20T08:32:40;7.75;;;5.22;;
15216;SDS011;7711;46.634;14.318;2023-07-20T08:35:07;12.60;;;6.70;;
15216;SDS011;7711;46.634;14.318;2023-07-20T08:37:35;7.53;;;4.82;;
15216;SDS011;7711;46.634;14.318;2023-07-20T08:40:03;6.00;;;4.88;;
15216;SDS011;7711;46.634;14.318;2023-07-20T08:42:35;7.35;;;5.55;;
15216;SDS011;7711;46.634;14.318;2023-07-20T08:45:03;8.25;;;6.03;;
15216;SDS011;7711;46.634;14.318;2023-07-20T08:47:35;10.77;;;7.47;;
15216;SDS011;7711;46.634;14.318;2023-07-20T08:50:02;6.90;;;5.43;;
15216;SDS011;7711;46.634;14.318;2023-07-20T08:52:34;7.97;;;5.50;;
15216;SDS011;7711;46.634;14.318;2023-07-20T08:55:01;7.13;;;5.35;;
15216;SDS011;7711;46.634;14.318;2023-07-20T08:57:29;6.55;;;4.95;;
15216;SDS011;7711;46.634;14.318;2023-07-20T08:59:59;6.95;;;4.82;;
15216;SDS011;7711;46.634;14.318;2023-07-20T09:02:29;7.47;;;5.20;;
15216;SDS011;7711;46.634;14.318;2023-07-20T09:04:58;5.55;;;4.78;;
15216;SDS011;7711;46.634;14.318;2023-07-20T09:07:25;8.52;;;4.90;;
15216;SDS011;7711;46.634;14.318;2023-07-20T09:09:52;12.65;;;6.78;;
15216;SDS011;7711;46.634;14.318;2023-07-20T09:12:22;13.05;;;7.82;;
15216;SDS011;7711;46.634;14.318;2023-07-20T09:14:49;13.32;;;8.80;;
15216;SDS011;7711;46.634;14.318;2023-07-20T09:17:17;7.07;;;5.85;;
15216;SDS011;7711;46.634;14.318;2023-07-20T09:19:47;6.85;;;5.55;;
15216;SDS011;7711;46.634;14.318;2023-07-20T09:22:14;8.80;;;5.70;;
15216;SDS011;7711;46.634;14.318;2023-07-20T09:24:42;6.68;;;5.13;;
15216;SDS011;7711;46.634;14.318;2023-07-20T09:27:10;7.93;;;5.78;;
15216;SDS011;7711;46.634;14.318;2023-07-20T09:29:46;6.75;;;5.20;;
15216;SDS011;7711;46.634;14.318;2023-07-20T09:32:17;8.23;;;5.55;;
15216;SDS011;7711;46.634;14.318;2023-07-20T09:34:46;7.43;;;4.95;;
15216;SDS011;7711;46.634;14.318;2023-07-20T09:37:13;7.25;;;5.68;;
15216;SDS011;7711;46.634;14.318;2023-07-20T09:39:45;9.38;;;6.75;;
15216;SDS011;7711;46.634;14.318;2023-07-20T09:42:14;7.28;;;6.32;;
15216;SDS011;7711;46.634;14.318;2023-07-20T09:44:43;5.95;;;5.13;;
15216;SDS011;7711;46.634;14.318;2023-07-20T09:47:10;6.75;;;5.90;;
15216;SDS011;7711;46.634;14.318;2023-07-20T09:49:40;5.55;;;4.80;;
15216;SDS011;7711;46.634;14.318;2023-07-20T09:52:08;6.78;;;5.18;;
15216;SDS011;7711;46.634;14.318;2023-07-20T09:54:35;8.05;;;4.93;;
15216;SDS011;7711;46.634;14.318;2023-07-20T09:57:05;7.20;;;5.00;;
15216;SDS011;7711;46.634;14.318;2023-07-20T09:59:34;6.25;;;5.18;;
15216;SDS011;7711;46.634;14.318;2023-07-20T10:02:01;6.93;;;4.80;;
15216;SDS011;7711;46.634;14.318;2023-07-20T10:04:31;4.90;;;4.40;;
15216;SDS011;7711;46.634;14.318;2023-07-20T10:07:04;6.35;;;4.85;;
15216;SDS011;7711;46.634;14.318;2023-07-20T10:09:35;6.70;;;4.82;;
15216;SDS011;7711;46.634;14.318;2023-07-20T10:12:05;7.22;;;4.88;;
15216;SDS011;7711;46.634;14.318;2023-07-20T10:14:35;9.20;;;4.75;;
15216;SDS011;7711;46.634;14.318;2023-07-20T10:17:07;6.00;;;4.85;;
15216;SDS011;7711;46.634;14.318;2023-07-20T10:19:39;5.28;;;4.57;;
15216;SDS011;7711;46.634;14.318;2023-07-20T10:22:12;6.70;;;5.10;;
15216;SDS011;7711;46.634;14.318;2023-07-20T10:24:44;5.30;;;4.75;;
15216;SDS011;7711;46.634;14.318;2023-07-20T10:27:12;6.10;;;4.40;;
15216;SDS011;7711;46.634;14.318;2023-07-20T10:29:40;6.22;;;4.22;;
15216;SDS011;7711;46.634;14.318;2023-07-20T10:32:08;4.60;;;4.10;;
15216;SDS011;7711;46.634;14.318;2023-07-20T10:34:35;5.35;;;4.00;;
15216;SDS011;7711;46.634;14.318;2023-07-20T10:37:03;4.45;;;3.80;;
15216;SDS011;7711;46.634;14.318;2023-07-20T10:39:32;4.85;;;4.10;;
15216;SDS011;7711;46.634;14.318;2023-07-20T10:41:59;4.35;;;3.95;;
15216;SDS011;7711;46.634;14.318;2023-07-20T10:44:28;6.90;;;4.50;;
15216;SDS011;7711;46.634;14.318;2023-07-20T10:46:59;5.80;;;4.50;;
15216;SDS011;7711;46.634;14.318;2023-07-20T10:49:26;5.03;;;4.32;;
15216;SDS011;7711;46.634;14.318;2023-07-20T10:51:57;4.80;;;3.90;;
15216;SDS011;7711;46.634;14.318;2023-07-20T10:54:36;5.18;;;4.05;;
15216;SDS011;7711;46.634;14.318;2023-07-20T10:57:28;4.88;;;3.95;;
15216;SDS011;7711;46.634;14.318;2023-07-20T11:02:41;5.47;;;4.00;;
15216;SDS011;7711;46.634;14.318;2023-07-20T11:08:03;4.07;;;3.55;;
15216;SDS011;7711;46.634;14.318;2023-07-20T11:10:32;4.70;;;4.05;;
15216;SDS011;7711;46.634;14.318;2023-07-20T11:13:18;6.30;;;4.10;;
15216;SDS011;7711;46.634;14.318;2023-07-20T11:15:46;6.63;;;3.83;;
15216;SDS011;7711;46.634;14.318;2023-07-20T11:18:14;4.38;;;3.95;;
15216;SDS011;7711;46.634;14.318;2023-07-20T11:20:41;4.65;;;4.18;;
15216;SDS011;7711;46.634;14.318;2023-07-20T11:23:08;4.25;;;3.85;;
15216;SDS011;7711;46.634;14.318;2023-07-20T11:25:38;6.93;;;4.00;;
15216;SDS011;7711;46.634;14.318;2023-07-20T11:28:08;4.70;;;4.30;;
15216;SDS011;7711;46.634;14.318;2023-07-20T11:30:36;5.40;;;4.60;;
15216;SDS011;7711;46.634;14.318;2023-07-20T11:33:03;5.63;;;4.20;;
15216;SDS011;7711;46.634;14.318;2023-07-20T11:35:30;6.22;;;3.88;;
15216;SDS011;7711;46.634;14.318;2023-07-20T11:38:01;5.07;;;4.30;;
15216;SDS011;7711;46.634;14.318;2023-07-20T11:40:28;4.65;;;4.00;;
15216;SDS011;7711;46.634;14.318;2023-07-20T11:42:57;5.65;;;4.65;;
15216;SDS011;7711;46.634;14.318;2023-07-20T11:45:25;6.45;;;4.28;;
15216;SDS011;7711;46.634;14.318;2023-07-20T11:47:58;6.18;;;4.22;;
15216;SDS011;7711;46.634;14.318;2023-07-20T11:50:25;5.00;;;4.30;;
15216;SDS011;7711;46.634;14.318;2023-07-20T11:52:52;7.57;;;4.57;;
15216;SDS011;7711;46.634;14.318;2023-07-20T11:55:19;6.18;;;4.25;;
15216;SDS011;7711;46.634;14.318;2023-07-20T12:00:30;9.25;;;4.57;;
15216;SDS011;7711;46.634;14.318;2023-07-20T12:02:58;6.07;;;4.45;;
15216;SDS011;7711;46.634;14.318;2023-07-20T12:05:25;5.60;;;4.47;;
15216;SDS011;7711;46.634;14.318;2023-07-20T12:07:52;5.72;;;4.55;;
15216;SDS011;7711;46.634;14.318;2023-07-20T12:10:23;6.65;;;5.15;;
15216;SDS011;7711;46.634;14.318;2023-07-20T12:12:51;6.85;;;5.28;;
15216;SDS011;7711;46.634;14.318;2023-07-20T12:15:22;5.45;;;4.93;;
15216;SDS011;7711;46.634;14.318;2023-07-20T12:17:51;7.38;;;5.40;;
15216;SDS011;7711;46.634;14.318;2023-07-20T12:20:25;5.63;;;5.00;;
15216;SDS011;7711;46.634;14.318;2023-07-20T12:22:55;6.18;;;4.63;;
15216;SDS011;7711;46.634;14.318;2023-07-20T12:25:32;6.57;;;4.82;;
15216;SDS011;7711;46.634;14.318;2023-07-20T12:28:00;6.28;;;4.80;;
15216;SDS011;7711;46.634;14.318;2023-07-20T12:30:30;5.75;;;5.10;;
15216;SDS011;7711;46.634;14.318;2023-07-20T12:32:57;7.40;;;4.82;;
15216;SDS011;7711;46.634;14.318;2023-07-20T12:35:24;6.53;;;4.93;;
15216;SDS011;7711;46.634;14.318;2023-07-20T12:37:51;8.20;;;4.53;;
15216;SDS011;7711;46.634;14.318;2023-07-20T12:40:18;5.40;;;4.90;;
15216;SDS011;7711;46.634;14.318;2023-07-20T12:42:46;6.45;;;5.10;;
15216;SDS011;7711;46.634;14.318;2023-07-20T12:45:13;7.00;;;5.28;;
15216;SDS011;7711;46.634;14.318;2023-07-20T12:47:41;5.53;;;4.80;;
15216;SDS011;7711;46.634;14.318;2023-07-20T12:50:09;5.43;;;4.93;;
15216;SDS011;7711;46.634;14.318;2023-07-20T12:52:36;6.15;;;4.70;;
15216;SDS011;7711;46.634;14.318;2023-07-20T12:55:04;10.48;;;5.68;;
15216;SDS011;7711;46.634;14.318;2023-07-20T12:57:33;5.10;;;4.60;;
15216;SDS011;7711;46.634;14.318;2023-07-20T13:00:00;5.75;;;4.63;;
15216;SDS011;7711;46.634;14.318;2023-07-20T13:02:28;6.60;;;5.10;;
15216;SDS011;7711;46.634;14.318;2023-07-20T13:04:57;5.35;;;4.70;;
15216;SDS011;7711;46.634;14.318;2023-07-20T13:07:30;7.10;;;5.20;;
15216;SDS011;7711;46.634;14.318;2023-07-20T13:09:58;6.20;;;4.85;;
15216;SDS011;7711;46.634;14.318;2023-07-20T13:12:25;7.40;;;4.95;;
15216;SDS011;7711;46.634;14.318;2023-07-20T13:14:53;6.93;;;5.15;;
15216;SDS011;7711;46.634;14.318;2023-07-20T13:17:21;6.15;;;5.05;;
15216;SDS011;7711;46.634;14.318;2023-07-20T13:19:48;5.80;;;5.00;;
15216;SDS011;7711;46.634;14.318;2023-07-20T13:22:17;5.97;;;5.38;;
15216;SDS011;7711;46.634;14.318;2023-07-20T13:24:44;6.32;;;4.80;;
15216;SDS011;7711;46.634;14.318;2023-07-20T13:27:14;5.72;;;5.10;;
15216;SDS011;7711;46.634;14.318;2023-07-20T13:29:41;6.50;;;4.82;;
15216;SDS011;7711;46.634;14.318;2023-07-20T13:32:08;6.60;;;5.30;;
15216;SDS011;7711;46.634;14.318;2023-07-20T13:34:35;6.10;;;4.97;;
15216;SDS011;7711;46.634;14.318;2023-07-20T13:37:03;5.60;;;4.75;;
15216;SDS011;7711;46.634;14.318;2023-07-20T13:39:31;6.28;;;5.10;;
15216;SDS011;7711;46.634;14.318;2023-07-20T13:41:58;5.80;;;5.00;;
15216;SDS011;7711;46.634;14.318;2023-07-20T13:44:26;5.78;;;5.18;;
15216;SDS011;7711;46.634;14.318;2023-07-20T13:46:53;7.28;;;5.30;;
15216;SDS011;7711;46.634;14.318;2023-07-20T13:49:20;5.85;;;5.25;;
15216;SDS011;7711;46.634;14.318;2023-07-20T13:51:47;6.03;;;5.32;;
15216;SDS011;7711;46.634;14.318;2023-07-20T13:54:14;6.10;;;5.10;;
15216;SDS011;7711;46.634;14.318;2023-07-20T13:56:42;7.55;;;5.65;;
15216;SDS011;7711;46.634;14.318;2023-07-20T13:59:09;6.03;;;5.43;;
15216;SDS011;7711;46.634;14.318;2023-07-20T14:01:36;6.63;;;5.20;;
15216;SDS011;7711;46.634;14.318;2023-07-20T14:04:03;6.63;;;5.35;;
15216;SDS011;7711;46.634;14.318;2023-07-20T14:06:31;8.55;;;5.95;;
15216;SDS011;7711;46.634;14.318;2023-07-20T14:08:59;10.85;;;5.60;;
15216;SDS011;7711;46.634;14.318;2023-07-20T14:11:26;6.32;;;5.72;;
15216;SDS011;7711;46.634;14.318;2023-07-20T14:13:54;6.60;;;5.35;;
15216;SDS011;7711;46.634;14.318;2023-07-20T14:16:23;6.97;;;5.15;;
15216;SDS011;7711;46.634;14.318;2023-07-20T14:18:51;7.78;;;4.78;;
15216;SDS011;7711;46.634;14.318;2023-07-20T14:21:18;7.93;;;4.60;;
15216;SDS011;7711;46.634;14.318;2023-07-20T14:23:46;7.80;;;4.50;;
15216;SDS011;7711;46.634;14.318;2023-07-20T14:26:15;5.40;;;4.78;;
15216;SDS011;7711;46.634;14.318;2023-07-20T14:28:42;5.50;;;4.50;;
15216;SDS011;7711;46.634;14.318;2023-07-20T14:31:10;8.02;;;4.85;;
15216;SDS011;7711;46.634;14.318;2023-07-20T14:33:37;9.25;;;5.10;;
15216;SDS011;7711;46.634;14.318;2023-07-20T14:36:04;8.65;;;5.40;;
15216;SDS011;7711;46.634;14.318;2023-07-20T14:38:32;7.07;;;5.20;;
15216;SDS011;7711;46.634;14.318;2023-07-20T14:41:00;7.25;;;5.60;;
15216;SDS011;7711;46.634;14.318;2023-07-20T14:43:27;7.43;;;5.43;;
15216;SDS011;7711;46.634;14.318;2023-07-20T14:45:54;8.30;;;4.95;;
15216;SDS011;7711;46.634;14.318;2023-07-20T14:48:23;6.18;;;5.22;;
15216;SDS011;7711;46.634;14.318;2023-07-20T14:50:50;7.47;;;5.65;;
15216;SDS011;7711;46.634;14.318;2023-07-20T14:53:17;7.32;;;5.78;;
15216;SDS011;7711;46.634;14.318;2023-07-20T14:55:43;7.55;;;5.40;;
15216;SDS011;7711;46.634;14.318;2023-07-20T14:58:10;8.15;;;5.40;;
15216;SDS011;7711;46.634;14.318;2023-07-20T15:00:37;10.07;;;5.65;;
15216;SDS011;7711;46.634;14.318;2023-07-20T15:03:05;7.10;;;5.43;;
15216;SDS011;7711;46.634;14.318;2023-07-20T15:05:36;6.78;;;5.20;;